Time;durP1;ratioP1;P1;durP2;ratioP2;P2;SDS_P1;SDS_P2;PMS_P1;PMS_P2;Temp;Humidity;BMP_temperature;BMP_pressure;BME280_temperature;BME280_humidity;BME280_pressure;Samples;Min_cycle;Max_cycle;Signal;HPM_P1;HPM_P2
2023/06/07 00:00:25;;;;;;;12.88;4.25;;;14.10;78.90;;;;;;5015807;28;20048;-84
2023/06/07 00:02:51;;;;;;;5.78;3.65;;;14.10;79.00;;;;;;5023023;28;20030;-83
2023/06/07 00:05:21;;;;;;;9.55;4.85;;;14.10;79.00;;;;;;5032008;28;20054;-82
2023/06/07 00:07:47;;;;;;;12.18;5.30;;;14.10;79.10;;;;;;4994432;28;20361;-81
2023/06/07 00:10:13;;;;;;;9.13;4.15;;;14.00;79.20;;;;;;5016257;28;20061;-83
2023/06/07 00:12:40;;;;;;;10.35;3.80;;;14.00;79.30;;;;;;5018079;28;20080;-82
2023/06/07 00:15:07;;;;;;;17.13;4.38;;;14.00;79.50;;;;;;5021246;28;20022;-83
2023/06/07 00:17:33;;;;;;;9.32;4.78;;;14.00;79.40;;;;;;5028295;28;20029;-83
2023/06/07 00:20:00;;;;;;;6.53;4.05;;;14.00;79.60;;;;;;5017455;28;20033;-83
2023/06/07 00:22:26;;;;;;;11.63;4.90;;;13.90;79.70;;;;;;5010076;28;20104;-83
2023/06/07 00:24:52;;;;;;;9.10;3.70;;;13.90;79.70;;;;;;4994348;28;20018;-82
2023/06/07 00:27:18;;;;;;;10.10;4.10;;;13.90;79.80;;;;;;5014089;28;20099;-83
2023/06/07 00:29:44;;;;;;;5.85;4.47;;;13.80;79.90;;;;;;5013739;28;20037;-82
2023/06/07 00:32:11;;;;;;;9.27;3.90;;;13.80;80.10;;;;;;5013591;28;20383;-83
2023/06/07 00:34:37;;;;;;;9.18;3.92;;;13.80;80.10;;;;;;5013398;28;20018;-82
2023/06/07 00:37:03;;;;;;;12.45;3.80;;;13.80;80.10;;;;;;4996695;28;20044;-82
2023/06/07 00:39:29;;;;;;;6.68;3.78;;;13.80;80.40;;;;;;5011826;28;20022;-82
2023/06/07 00:41:56;;;;;;;11.68;3.97;;;13.80;80.40;;;;;;5007320;28;20113;-82
2023/06/07 00:44:22;;;;;;;8.25;4.15;;;13.70;80.50;;;;;;5014018;28;20026;-83
2023/06/07 00:46:51;;;;;;;8.63;3.95;;;13.70;80.50;;;;;;4996180;28;20022;-82
2023/06/07 00:49:17;;;;;;;8.02;3.58;;;13.70;80.70;;;;;;5011165;28;20026;-82
2023/06/07 00:51:45;;;;;;;13.57;3.75;;;13.70;80.70;;;;;;5022796;28;20022;-82
2023/06/07 00:54:17;;;;;;;9.88;3.88;;;13.70;80.80;;;;;;5021578;28;20118;-81
2023/06/07 00:56:50;;;;;;;7.93;3.42;;;13.70;81.40;;;;;;5015115;28;20068;-82
2023/06/07 00:59:20;;;;;;;7.82;3.30;;;13.60;80.80;;;;;;5013462;28;20542;-80
2023/06/07 01:01:51;;;;;;;7.65;3.08;;;13.60;81.00;;;;;;5013593;28;20395;-82
2023/06/07 01:04:23;;;;;;;5.80;3.08;;;13.60;80.90;;;;;;5013378;28;20093;-80
2023/06/07 01:06:52;;;;;;;5.10;3.22;;;13.60;81.10;;;;;;5013030;28;20025;-81
2023/06/07 01:09:19;;;;;;;9.85;3.75;;;13.60;81.30;;;;;;5012740;28;20034;-82
2023/06/07 01:11:50;;;;;;;4.97;3.17;;;13.60;81.50;;;;;;4995092;28;20025;-80
2023/06/07 01:14:18;;;;;;;9.30;3.40;;;13.60;81.50;;;;;;5012785;28;20483;-80
2023/06/07 01:16:48;;;;;;;6.40;3.17;;;13.60;81.50;;;;;;5013243;28;20049;-82
2023/06/07 01:19:22;;;;;;;10.15;3.40;;;13.60;81.50;;;;;;5011383;28;20028;-81
2023/06/07 01:21:54;;;;;;;5.10;3.08;;;13.60;81.50;;;;;;4995384;28;20436;-80
2023/06/07 01:24:20;;;;;;;4.53;2.90;;;13.60;81.60;;;;;;5011959;28;20022;-81
2023/06/07 01:26:57;;;;;;;7.60;4.10;;;13.60;81.60;;;;;;5007104;28;20022;-83
2023/06/07 01:29:27;;;;;;;6.68;3.35;;;13.60;81.50;;;;;;5012771;28;20029;-81
2023/06/07 01:31:56;;;;;;;8.05;3.25;;;13.60;81.60;;;;;;4994761;28;20026;-81
2023/06/07 01:34:23;;;;;;;6.30;3.30;;;13.60;81.80;;;;;;5013011;28;20018;-81
2023/06/07 01:36:50;;;;;;;9.85;3.42;;;13.70;82.00;;;;;;5022306;28;20451;-80
2023/06/07 01:39:18;;;;;;;7.53;3.40;;;13.70;81.90;;;;;;5027737;28;20033;-82
2023/06/07 01:41:46;;;;;;;9.10;4.00;;;13.70;81.70;;;;;;5017463;28;20536;-79
2023/06/07 01:44:13;;;;;;;7.93;3.58;;;13.70;81.80;;;;;;5012746;28;20022;-80
2023/06/07 01:46:41;;;;;;;5.93;3.35;;;13.70;81.80;;;;;;5014044;28;20030;-80
2023/06/07 01:49:07;;;;;;;5.05;3.10;;;13.80;81.40;;;;;;5015069;28;20034;-80
2023/06/07 01:51:33;;;;;;;10.63;4.03;;;13.80;81.30;;;;;;5014703;28;20113;-83
2023/06/07 01:54:00;;;;;;;8.02;3.75;;;13.90;81.10;;;;;;4992780;28;20434;-81
2023/06/07 01:56:43;;;;;;;5.28;3.58;;;13.90;81.00;;;;;;4995936;28;20022;-80
2023/06/07 01:59:37;;;;;;;10.05;2.92;;;14.00;80.60;;;;;;5008976;28;20048;-81
2023/06/07 02:02:33;;;;;;;11.80;3.63;;;14.00;80.70;;;;;;5015650;28;20029;-80
2023/06/07 02:05:03;;;;;;;7.38;3.45;;;14.10;80.50;;;;;;4992912;28;20038;-80
2023/06/07 02:07:36;;;;;;;5.60;3.17;;;14.10;80.50;;;;;;5006554;28;20109;-81
2023/06/07 02:10:04;;;;;;;9.85;4.07;;;14.20;80.50;;;;;;4984054;28;20487;-80
2023/06/07 02:12:31;;;;;;;8.32;3.47;;;14.20;80.20;;;;;;5012390;28;20025;-81
2023/06/07 02:15:00;;;;;;;6.78;3.75;;;14.30;80.00;;;;;;5012135;28;20022;-81
2023/06/07 02:17:28;;;;;;;10.02;5.68;;;14.30;79.80;;;;;;5012245;28;20091;-81
2023/06/07 02:19:54;;;;;;;9.02;3.65;;;14.40;79.80;;;;;;5012377;28;20022;-81
2023/06/07 02:22:21;;;;;;;6.22;3.35;;;14.50;79.50;;;;;;5011736;28;20030;-81
2023/06/07 02:24:47;;;;;;;9.10;3.22;;;14.50;79.20;;;;;;5013010;28;20387;-81
2023/06/07 02:27:13;;;;;;;9.98;3.60;;;14.60;79.20;;;;;;5019683;28;20092;-81
2023/06/07 02:29:39;;;;;;;11.23;3.50;;;14.60;78.90;;;;;;5020111;28;20033;-82
2023/06/07 02:32:05;;;;;;;7.45;3.60;;;14.70;78.80;;;;;;5019919;28;20018;-83
2023/06/07 02:34:34;;;;;;;6.20;3.00;;;14.80;78.70;;;;;;5016392;28;20037;-80
2023/06/07 02:37:00;;;;;;;7.00;2.95;;;14.80;78.20;;;;;;5014609;28;20018;-80
2023/06/07 02:39:26;;;;;;;5.43;3.42;;;14.80;77.80;;;;;;5017233;28;20050;-83
2023/06/07 02:41:52;;;;;;;8.27;4.13;;;14.90;77.80;;;;;;5011982;28;20443;-82
2023/06/07 02:44:18;;;;;;;7.63;3.97;;;15.00;77.40;;;;;;5013778;28;20092;-82
2023/06/07 02:46:44;;;;;;;6.97;2.88;;;15.00;77.30;;;;;;5016051;28;20097;-81
2023/06/07 02:49:10;;;;;;;8.07;3.47;;;15.10;77.20;;;;;;5015913;28;20049;-82
2023/06/07 02:51:38;;;;;;;9.50;3.22;;;15.20;76.90;;;;;;5015903;28;20112;-82
2023/06/07 02:54:04;;;;;;;7.47;3.58;;;15.20;76.50;;;;;;5015351;28;20042;-83
2023/06/07 02:56:32;;;;;;;10.85;3.67;;;15.30;76.50;;;;;;5015414;28;20101;-82
2023/06/07 02:58:58;;;;;;;9.18;3.17;;;15.40;76.10;;;;;;4997838;28;20018;-82
2023/06/07 03:01:27;;;;;;;6.28;3.30;;;15.60;75.60;;;;;;5015382;28;20341;-83
2023/06/07 03:03:53;;;;;;;9.38;3.42;;;15.70;75.30;;;;;;5014478;28;20056;-83
2023/06/07 03:06:19;;;;;;;5.43;3.30;;;15.90;74.80;;;;;;4997784;28;20032;-81
2023/06/07 03:08:45;;;;;;;10.40;2.88;;;16.00;73.60;;;;;;5019125;28;20033;-83
2023/06/07 03:11:13;;;;;;;5.45;3.30;;;16.20;73.30;;;;;;4999344;28;20419;-80
2023/06/07 03:13:40;;;;;;;4.43;3.42;;;16.30;73.00;;;;;;5015956;28;20029;-82
2023/06/07 03:16:05;;;;;;;8.93;3.80;;;16.40;72.60;;;;;;4997327;28;20133;-83
2023/06/07 03:18:32;;;;;;;6.05;3.00;;;16.50;72.20;;;;;;5013965;28;20548;-83
2023/06/07 03:20:58;;;;;;;7.95;3.67;;;16.50;71.70;;;;;;5015229;28;20036;-83
2023/06/07 03:23:24;;;;;;;6.05;3.50;;;16.50;72.00;;;;;;5014949;28;20018;-84
2023/06/07 03:25:49;;;;;;;9.45;3.55;;;16.50;71.70;;;;;;5015231;28;20030;-85
2023/06/07 03:28:15;;;;;;;4.47;3.17;;;16.50;71.90;;;;;;5016360;28;20018;-83
2023/06/07 03:30:51;;;;;;;7.72;3.47;;;16.50;71.50;;;;;;5016678;28;20040;-85
2023/06/07 03:33:17;;;;;;;6.75;3.63;;;16.60;71.50;;;;;;5019387;28;20105;-83
2023/06/07 03:35:44;;;;;;;5.40;2.90;;;16.70;71.20;;;;;;5024428;28;20050;-82
2023/06/07 03:38:10;;;;;;;5.65;3.38;;;16.70;70.70;;;;;;5008811;28;20098;-82
2023/06/07 03:40:36;;;;;;;7.32;3.95;;;16.80;71.10;;;;;;5006073;28;20057;-81
2023/06/07 03:43:02;;;;;;;10.95;4.00;;;16.80;70.80;;;;;;5010884;28;20501;-84
2023/06/07 03:45:28;;;;;;;11.27;4.20;;;16.80;70.70;;;;;;5020646;28;20390;-82
2023/06/07 03:47:54;;;;;;;6.75;3.83;;;16.80;71.10;;;;;;4997178;28;20030;-82
2023/06/07 03:50:20;;;;;;;9.55;3.90;;;16.90;71.00;;;;;;5005471;28;20121;-83
2023/06/07 03:52:46;;;;;;;8.23;3.75;;;17.00;70.70;;;;;;5034269;28;20056;-82
2023/06/07 03:55:12;;;;;;;11.07;3.58;;;17.00;70.40;;;;;;5028385;28;20026;-82
2023/06/07 03:57:38;;;;;;;6.00;3.60;;;17.00;70.40;;;;;;5015888;28;20021;-83
2023/06/07 04:00:06;;;;;;;11.18;4.38;;;17.10;70.40;;;;;;4998523;28;20113;-82
2023/06/07 04:02:32;;;;;;;9.65;4.30;;;17.20;70.70;;;;;;5015642;28;20491;-82
2023/06/07 04:04:57;;;;;;;8.85;3.55;;;17.20;69.80;;;;;;5014690;28;20108;-82
2023/06/07 04:07:23;;;;;;;6.45;3.40;;;17.30;70.40;;;;;;5014449;28;20057;-83
2023/06/07 04:09:49;;;;;;;7.38;3.33;;;17.30;69.50;;;;;;5014517;28;20475;-82
2023/06/07 04:12:17;;;;;;;14.27;4.65;;;17.40;69.10;;;;;;5016339;28;20024;-82
2023/06/07 04:14:43;;;;;;;9.30;3.28;;;17.40;69.50;;;;;;5009809;28;20033;-83
2023/06/07 04:17:08;;;;;;;8.15;3.75;;;17.50;68.60;;;;;;5018147;28;20014;-80
2023/06/07 04:19:35;;;;;;;7.93;3.65;;;17.60;69.20;;;;;;5000384;28;20057;-84
2023/06/07 04:22:04;;;;;;;7.82;3.70;;;17.60;69.10;;;;;;5014416;28;20458;-83
2023/06/07 04:24:31;;;;;;;11.23;3.70;;;17.80;69.10;;;;;;5014294;28;20072;-82
2023/06/07 04:26:58;;;;;;;6.88;3.47;;;17.80;69.00;;;;;;5014177;28;20049;-84
2023/06/07 04:29:25;;;;;;;9.55;3.80;;;17.90;68.00;;;;;;5017397;28;20462;-83
2023/06/07 04:31:56;;;;;;;7.63;3.22;;;18.00;67.80;;;;;;5014212;28;20053;-83
2023/06/07 04:34:23;;;;;;;9.82;3.90;;;18.10;68.10;;;;;;4987572;28;20400;-82
2023/06/07 04:36:50;;;;;;;6.00;2.90;;;18.10;67.60;;;;;;4993642;28;20080;-83
2023/06/07 04:39:18;;;;;;;7.25;3.42;;;18.20;66.60;;;;;;5013579;28;20380;-83
2023/06/07 04:41:45;;;;;;;5.82;3.55;;;18.30;67.20;;;;;;5018182;28;20022;-82
2023/06/07 04:44:15;;;;;;;7.73;3.70;;;18.40;67.40;;;;;;5013822;28;20237;-83
2023/06/07 04:46:41;;;;;;;6.78;3.47;;;18.50;67.10;;;;;;5015341;28;20053;-82
2023/06/07 04:49:07;;;;;;;6.85;3.28;;;18.60;67.10;;;;;;5014195;28;20050;-83
2023/06/07 04:51:33;;;;;;;6.68;3.53;;;18.80;66.80;;;;;;5016141;28;20026;-82
2023/06/07 04:54:04;;;;;;;4.72;3.25;;;18.90;66.50;;;;;;5016831;28;20041;-83
2023/06/07 04:56:30;;;;;;;7.57;3.17;;;19.00;65.80;;;;;;5015727;28;20069;-82
2023/06/07 04:58:56;;;;;;;6.93;4.18;;;19.20;65.20;;;;;;5016163;28;20028;-83
2023/06/07 05:01:22;;;;;;;8.18;3.17;;;19.30;65.00;;;;;;5018468;28;20053;-83
2023/06/07 05:04:00;;;;;;;10.73;3.65;;;19.30;65.50;;;;;;5028081;28;20042;-84
2023/06/07 05:06:28;;;;;;;8.45;3.20;;;19.30;65.40;;;;;;5023305;28;20014;-83
2023/06/07 05:08:55;;;;;;;7.65;3.47;;;19.60;64.70;;;;;;5024607;28;20391;-82
2023/06/07 05:11:21;;;;;;;6.55;3.22;;;20.30;63.00;;;;;;5010914;28;20040;-84
2023/06/07 05:13:47;;;;;;;5.55;2.90;;;21.20;60.80;;;;;;5006366;28;20034;-83
2023/06/07 05:16:16;;;;;;;6.15;3.00;;;22.40;58.10;;;;;;5019317;28;20029;-82
2023/06/07 05:18:49;;;;;;;8.38;3.42;;;23.70;54.70;;;;;;5021359;28;20379;-83
2023/06/07 05:21:16;;;;;;;4.18;3.20;;;24.80;52.90;;;;;;5015438;28;20471;-84
2023/06/07 05:23:42;;;;;;;7.15;2.95;;;25.60;50.20;;;;;;5015192;28;20041;-84
2023/06/07 05:26:08;;;;;;;12.48;3.53;;;26.40;48.30;;;;;;5014446;28;20022;-84
2023/06/07 05:28:35;;;;;;;9.18;3.33;;;26.90;47.70;;;;;;5013797;28;20091;-84
2023/06/07 05:31:01;;;;;;;9.52;3.30;;;27.50;46.80;;;;;;4996260;28;20037;-83
2023/06/07 05:33:28;;;;;;;9.90;3.47;;;;;;;;;;4995498;28;20022;-83
2023/06/07 05:35:54;;;;;;;;;;;;;;;;;;5014060;28;20052;-84
2023/06/07 05:38:21;;;;;;;5.78;2.50;;;28.30;45.30;;;;;;5013097;28;20386;-86
2023/06/07 05:40:47;;;;;;;7.57;3.05;;;29.50;43.90;;;;;;5014097;28;20045;-83
2023/06/07 05:43:14;;;;;;;7.50;2.83;;;29.80;42.10;;;;;;5016206;28;20033;-84
2023/06/07 05:45:41;;;;;;;6.88;3.03;;;30.10;41.30;;;;;;5024504;28;20033;-82
2023/06/07 05:48:07;;;;;;;6.60;3.00;;;30.40;41.30;;;;;;5021462;28;20109;-83
2023/06/07 05:50:33;;;;;;;4.22;2.42;;;31.00;40.80;;;;;;5007578;28;20034;-84
2023/06/07 05:52:59;;;;;;;7.30;2.70;;;30.90;39.20;;;;;;4994036;28;20474;-82
2023/06/07 05:55:29;;;;;;;6.07;2.90;;;30.80;39.20;;;;;;4993308;28;20064;-82
2023/06/07 05:58:00;;;;;;;10.70;3.88;;;30.80;39.40;;;;;;4993445;28;20026;-84
2023/06/07 06:00:26;;;;;;;9.00;2.90;;;31.40;39.60;;;;;;4994708;28;20602;-81
2023/06/07 06:02:52;;;;;;;9.48;3.33;;;32.40;39.00;;;;;;4996129;28;20022;-80
2023/06/07 06:05:21;;;;;;;8.90;2.88;;;33.00;38.00;;;;;;4993914;28;20050;-82
2023/06/07 06:07:47;;;;;;;10.38;3.67;;;33.40;37.20;;;;;;4994351;28;20033;-80
2023/06/07 06:10:12;;;;;;;6.23;3.47;;;33.60;37.10;;;;;;4992825;28;20046;-81
2023/06/07 06:12:38;;;;;;;10.20;3.00;;;34.10;37.00;;;;;;4993767;28;20845;-80
2023/06/07 06:15:05;;;;;;;10.03;3.17;;;34.90;35.90;;;;;;4992678;28;20050;-80
2023/06/07 06:17:31;;;;;;;;;;;35.50;35.20;;;;;;4996030;28;20019;-81
2023/06/07 06:19:56;;;;;;;5.25;2.30;;;35.40;36.50;;;;;;4996897;28;19982;-82
2023/06/07 06:22:22;;;;;;;6.87;3.13;;;36.10;34.40;;;;;;4996461;28;20031;-82
2023/06/07 06:24:48;;;;;;;6.77;2.70;;;36.40;33.40;;;;;;4997300;28;20399;-82
2023/06/07 06:27:15;;;;;;;6.83;3.13;;;36.60;33.20;;;;;;4995619;28;20431;-81
2023/06/07 06:29:41;;;;;;;11.55;3.38;;;36.70;32.70;;;;;;4996314;28;20094;-82
2023/06/07 06:32:07;;;;;;;6.70;3.10;;;36.90;32.50;;;;;;4996602;28;20034;-82
2023/06/07 06:34:33;;;;;;;5.03;2.60;;;37.10;32.60;;;;;;4996723;28;20034;-81
2023/06/07 06:37:00;;;;;;;3.73;2.53;;;37.50;31.80;;;;;;4996030;28;20025;-82
2023/06/07 06:39:26;;;;;;;7.90;2.80;;;37.50;31.70;;;;;;4995591;28;20279;-81
2023/06/07 06:41:52;;;;;;;4.57;2.40;;;37.60;31.50;;;;;;4996273;28;20037;-83
2023/06/07 06:44:18;;;;;;;10.23;2.63;;;37.80;31.90;;;;;;4996684;28;20026;-84
2023/06/07 06:46:44;;;;;;;6.35;2.40;;;38.00;31.40;;;;;;4996258;28;20396;-83
2023/06/07 06:49:10;;;;;;;8.27;2.78;;;38.10;31.20;;;;;;4996204;28;20034;-81
2023/06/07 06:51:36;;;;;;;5.63;2.87;;;38.00;31.40;;;;;;4996640;28;20030;-81
2023/06/07 06:54:01;;;;;;;4.85;2.22;;;38.20;31.30;;;;;;5009713;28;20798;-82
2023/06/07 06:56:27;;;;;;;4.95;2.63;;;37.50;30.70;;;;;;5014949;28;20410;-81
2023/06/07 06:58:53;;;;;;;5.00;2.80;;;36.10;31.50;;;;;;5015766;28;20022;-82
2023/06/07 07:01:19;;;;;;;36.95;8.43;;;35.90;32.40;;;;;;5016069;28;20748;-82
2023/06/07 07:03:45;;;;;;;8.50;3.47;;;36.40;32.10;;;;;;5015782;28;20026;-82
2023/06/07 07:06:11;;;;;;;8.65;3.40;;;37.40;31.70;;;;;;5015843;28;20084;-82
2023/06/07 07:08:37;;;;;;;6.55;2.75;;;37.80;31.20;;;;;;5015669;28;20022;-81
2023/06/07 07:11:03;;;;;;;6.07;2.75;;;38.20;30.80;;;;;;5015891;28;20040;-81
2023/06/07 07:13:29;;;;;;;7.95;2.30;;;38.00;30.70;;;;;;4999600;28;20022;-81
2023/06/07 07:15:55;;;;;;;8.27;2.58;;;38.00;31.10;;;;;;5019430;28;20022;-81
2023/06/07 07:18:21;;;;;;;6.40;3.00;;;38.20;30.60;;;;;;5023558;28;20033;-82
2023/06/07 07:20:47;;;;;;;3.03;1.95;;;38.50;30.40;;;;;;5018445;28;20018;-80
2023/06/07 07:23:13;;;;;;;5.95;2.35;;;38.80;29.70;;;;;;5015389;28;20075;-81
2023/06/07 07:25:39;;;;;;;4.38;2.50;;;37.90;29.90;;;;;;5015561;28;20139;-82
2023/06/07 07:28:05;;;;;;;3.45;2.03;;;37.40;30.00;;;;;;5014981;28;20487;-81
2023/06/07 07:30:31;;;;;;;4.22;2.47;;;37.30;30.40;;;;;;5013922;28;20037;-82
2023/06/07 07:32:57;;;;;;;4.38;2.05;;;37.40;30.50;;;;;;5017140;28;20022;-81
2023/06/07 07:35:23;;;;;;;4.68;2.38;;;38.00;30.00;;;;;;5017488;28;20032;-81
2023/06/07 07:37:50;;;;;;;4.32;2.10;;;36.70;30.10;;;;;;5017203;28;20075;-82
2023/06/07 07:40:16;;;;;;;3.50;2.28;;;35.80;30.80;;;;;;5026539;28;20022;-81
2023/06/07 07:42:42;;;;;;;5.28;2.60;;;35.70;31.20;;;;;;5024255;28;20040;-81
2023/06/07 07:45:08;;;;;;;6.35;2.65;;;36.20;31.40;;;;;;5018236;28;20030;-82
2023/06/07 07:47:34;;;;;;;4.70;2.33;;;37.50;31.30;;;;;;5017216;28;20038;-81
2023/06/07 07:50:00;;;;;;;2.60;1.90;;;37.80;30.00;;;;;;5025589;28;20137;-80
2023/06/07 07:52:26;;;;;;;4.93;1.90;;;37.80;30.30;;;;;;5035734;28;20029;-82
2023/06/07 07:54:52;;;;;;;4.03;2.33;;;38.10;29.80;;;;;;5024509;28;20060;-80
2023/06/07 07:57:18;;;;;;;3.25;2.17;;;38.50;29.60;;;;;;5015806;28;20103;-82
2023/06/07 07:59:44;;;;;;;3.45;2.67;;;38.90;29.40;;;;;;4998620;28;20419;-82
2023/06/07 08:02:10;;;;;;;5.00;3.22;;;38.10;28.90;;;;;;5016272;28;20026;-80
2023/06/07 08:04:36;;;;;;;5.25;3.13;;;35.50;30.00;;;;;;5017494;28;20033;-81
2023/06/07 08:07:02;;;;;;;2.88;1.60;;;34.70;31.60;;;;;;5019459;28;20022;-81
2023/06/07 08:09:28;;;;;;;8.20;4.50;;;33.90;31.90;;;;;;5020611;28;20538;-81
2023/06/07 08:11:54;;;;;;;4.97;2.47;;;33.70;32.80;;;;;;5019279;28;20034;-81
2023/06/07 08:14:20;;;;;;;11.03;4.87;;;34.50;31.90;;;;;;5017557;28;20159;-81
2023/06/07 08:16:47;;;;;;;6.10;3.65;;;34.90;31.90;;;;;;5015788;28;20116;-80
2023/06/07 08:19:13;;;;;;;4.05;2.47;;;35.30;31.80;;;;;;5014536;28;20034;-82
2023/06/07 08:21:43;;;;;;;5.35;2.22;;;34.10;31.00;;;;;;5000882;28;20117;-83
2023/06/07 08:24:09;;;;;;;4.05;2.42;;;33.20;32.30;;;;;;5015358;28;20479;-81
2023/06/07 08:26:36;;;;;;;9.10;2.92;;;33.30;32.50;;;;;;5014172;28;20069;-81
2023/06/07 08:29:03;;;;;;;6.45;2.53;;;34.10;32.50;;;;;;4996379;28;20129;-81
2023/06/07 08:31:31;;;;;;;5.93;3.03;;;35.30;32.10;;;;;;5015538;28;20068;-81
2023/06/07 08:33:57;;;;;;;6.63;2.58;;;37.00;31.10;;;;;;5014151;28;20022;-82
2023/06/07 08:36:23;;;;;;;8.85;3.90;;;38.30;30.00;;;;;;5014459;28;20030;-82
2023/06/07 08:38:49;;;;;;;6.45;3.13;;;39.00;29.70;;;;;;5013983;28;20101;-82
2023/06/07 08:41:15;;;;;;;6.88;2.10;;;39.50;28.90;;;;;;5013998;28;20022;-82
2023/06/07 08:43:44;;;;;;;3.97;2.47;;;39.50;28.70;;;;;;5014432;28;20087;-83
2023/06/07 08:46:11;;;;;;;9.13;2.67;;;38.70;28.80;;;;;;5012321;28;20037;-82
2023/06/07 08:48:39;;;;;;;3.38;2.17;;;38.80;29.30;;;;;;5013514;28;20026;-82
2023/06/07 08:51:08;;;;;;;7.85;2.63;;;39.70;28.50;;;;;;4995239;28;20051;-81
2023/06/07 08:53:46;;;;;;;3.85;2.35;;;40.20;28.20;;;;;;5013266;28;20095;-83
2023/06/07 08:56:13;;;;;;;3.25;2.05;;;40.10;28.60;;;;;;5001555;28;20514;-81
2023/06/07 08:58:40;;;;;;;12.25;3.17;;;40.90;28.50;;;;;;4995861;28;20041;-81
2023/06/07 09:01:07;;;;;;;5.97;3.67;;;41.50;28.20;;;;;;4995860;28;20041;-81
2023/06/07 09:03:33;;;;;;;3.10;2.10;;;42.30;28.70;;;;;;5013364;28;20101;-82
2023/06/07 09:06:01;;;;;;;2.72;2.13;;;;;;;;;;5013178;28;20203;-82
2023/06/07 09:08:27;;;;;;;5.45;2.25;;;;;;;;;;4995243;28;20366;-81
2023/06/07 09:10:53;;;;;;;4.50;2.42;;;43.40;27.80;;;;;;5013038;28;20073;-82
2023/06/07 09:13:20;;;;;;;3.10;2.10;;;41.10;28.00;;;;;;5014972;28;20022;-81
2023/06/07 09:15:49;;;;;;;2.83;1.90;;;41.80;28.30;;;;;;5014556;28;20096;-81
2023/06/07 09:18:15;;;;;;;5.07;2.53;;;41.80;27.40;;;;;;5013029;28;20014;-83
2023/06/07 09:20:41;;;;;;;7.38;2.28;;;;;;;;;;5014065;28;20069;-82
2023/06/07 09:23:11;;;;;;;3.53;2.60;;;40.90;27.60;;;;;;4994809;28;20483;-81
2023/06/07 09:25:40;;;;;;;5.03;2.63;;;;;;;;;;5012143;28;20493;-82
2023/06/07 09:28:10;;;;;;;2.60;1.80;;;41.00;27.20;;;;;;5013610;28;20026;-80
2023/06/07 09:30:55;;;;;;;3.47;2.33;;;35.70;28.70;;;;;;5016293;28;20040;-81
2023/06/07 09:33:28;;;;;;;6.00;2.72;;;32.30;30.60;;;;;;5017052;28;20010;-81
2023/06/07 09:36:12;;;;;;;5.60;2.80;;;29.80;33.40;;;;;;5012903;28;20032;-80
2023/06/07 09:38:39;;;;;;;5.57;2.78;;;28.20;37.00;;;;;;5014634;28;20029;-82
2023/06/07 09:41:06;;;;;;;6.03;2.95;;;28.30;37.30;;;;;;5014827;28;20026;-79
2023/06/07 09:44:02;;;;;;;8.60;5.10;;;30.00;36.10;;;;;;4994431;28;20034;-80
2023/06/07 09:46:37;;;;;;;7.90;2.88;;;32.50;33.40;;;;;;4992174;28;20491;-80
2023/06/07 09:49:03;;;;;;;5.63;2.80;;;33.20;32.50;;;;;;5012494;28;20491;-80
2023/06/07 09:51:40;;;;;;;11.87;4.43;;;32.00;32.00;;;;;;5012660;28;20100;-79
2023/06/07 09:54:08;;;;;;;8.75;4.13;;;31.10;33.40;;;;;;5011694;28;20304;-80
2023/06/07 09:56:39;;;;;;;6.85;2.55;;;31.70;34.10;;;;;;5014305;28;20033;-81
2023/06/07 09:59:07;;;;;;;5.72;3.10;;;32.60;33.00;;;;;;5018060;28;20026;-79
2023/06/07 10:01:37;;;;;;;6.05;2.42;;;32.80;32.70;;;;;;5013494;28;20022;-80
2023/06/07 10:04:06;;;;;;;4.78;2.97;;;32.70;32.00;;;;;;5012690;28;20104;-81
2023/06/07 10:06:32;;;;;;;3.60;2.03;;;31.60;32.70;;;;;;5013159;28;20032;-80
2023/06/07 10:09:04;;;;;;;5.72;2.65;;;30.40;33.80;;;;;;5011959;28;20076;-80
2023/06/07 10:11:32;;;;;;;9.18;3.65;;;30.20;35.10;;;;;;5012835;28;20101;-80
2023/06/07 10:14:06;;;;;;;7.10;2.58;;;31.10;35.10;;;;;;5012235;28;20018;-80
2023/06/07 10:16:36;;;;;;;6.07;3.25;;;32.10;33.80;;;;;;4988646;28;20096;-82
2023/06/07 10:19:23;;;;;;;4.57;2.40;;;32.30;33.50;;;;;;5012206;28;20030;-81
2023/06/07 10:21:50;;;;;;;6.85;3.35;;;33.00;33.30;;;;;;5013245;28;20030;-84
2023/06/07 10:24:54;;;;;;;6.43;2.88;;;33.40;32.30;;;;;;5012060;28;20025;-81
2023/06/07 10:27:23;;;;;;;6.60;2.83;;;33.20;31.60;;;;;;4996799;28;20096;-83
2023/06/07 10:30:11;;;;;;;4.18;2.50;;;31.40;32.30;;;;;;5011747;28;20418;-82
2023/06/07 10:32:38;;;;;;;7.85;3.00;;;29.90;33.80;;;;;;5012596;28;20480;-83
2023/06/07 10:35:08;;;;;;;3.78;2.67;;;28.80;35.20;;;;;;5012281;28;20030;-84
2023/06/07 10:37:36;;;;;;;6.43;2.95;;;28.10;36.00;;;;;;5012275;28;20381;-83
2023/06/07 10:40:09;;;;;;;5.30;2.78;;;27.40;36.10;;;;;;4991661;28;20049;-83
2023/06/07 10:42:36;;;;;;;7.85;3.60;;;26.80;37.00;;;;;;4994917;28;20372;-81
2023/06/07 10:45:02;;;;;;;5.85;2.95;;;26.50;37.20;;;;;;5012136;28;20096;-84
2023/06/07 10:47:31;;;;;;;8.02;3.33;;;26.30;37.30;;;;;;5012187;28;20018;-81
2023/06/07 10:49:58;;;;;;;5.45;3.17;;;25.90;38.40;;;;;;5013138;28;20081;-82
2023/06/07 10:52:26;;;;;;;6.17;2.90;;;25.70;39.50;;;;;;5014811;28;20375;-83
2023/06/07 10:54:53;;;;;;;4.45;2.55;;;25.60;39.00;;;;;;5017447;28;20140;-83
2023/06/07 10:57:32;;;;;;;6.45;3.30;;;25.40;38.50;;;;;;5013274;28;20029;-83
2023/06/07 11:00:31;;;;;;;7.45;3.08;;;25.20;39.10;;;;;;5013521;28;20537;-82
2023/06/07 11:03:06;;;;;;;5.60;3.42;;;25.20;39.00;;;;;;5002722;28;20364;-81
2023/06/07 11:05:53;;;;;;;8.30;3.90;;;25.10;39.70;;;;;;5032093;28;20053;-81
2023/06/07 11:08:30;;;;;;;7.18;3.40;;;25.10;40.00;;;;;;5028349;28;20026;-83
2023/06/07 11:11:01;;;;;;;;;;;25.20;40.20;;;;;;5023040;28;20049;-82
2023/06/07 11:13:47;;;;;;;8.48;3.78;;;25.00;39.50;;;;;;5009460;28;19971;-81
2023/06/07 11:16:25;;;;;;;4.28;2.78;;;24.80;40.40;;;;;;5016168;28;20026;-82
2023/06/07 11:19:09;;;;;;;9.15;3.85;;;24.90;40.10;;;;;;5015701;28;20022;-84
2023/06/07 11:21:57;;;;;;;4.30;2.90;;;24.70;40.30;;;;;;5015916;28;20033;-81
2023/06/07 11:24:23;;;;;;;8.80;4.28;;;24.70;40.50;;;;;;5015246;28;20058;-82
2023/06/07 11:26:50;;;;;;;4.60;3.03;;;24.60;40.80;;;;;;5021982;28;20049;-82
2023/06/07 11:29:17;;;;;;;6.07;2.47;;;24.50;40.50;;;;;;5032579;28;20037;-81
2023/06/07 11:31:46;;;;;;;7.47;3.10;;;24.50;40.20;;;;;;5023724;28;20057;-81
2023/06/07 11:34:14;;;;;;;7.05;3.45;;;24.30;40.70;;;;;;5016055;28;20506;-80
2023/06/07 11:36:43;;;;;;;4.32;2.63;;;24.20;40.90;;;;;;5015959;28;20090;-82
2023/06/07 11:39:09;;;;;;;6.60;2.95;;;24.30;41.00;;;;;;4997337;28;20177;-81
2023/06/07 11:41:35;;;;;;;7.65;2.83;;;24.20;41.70;;;;;;5015289;28;20025;-82
2023/06/07 11:44:01;;;;;;;7.18;2.83;;;24.20;41.30;;;;;;5015751;28;20096;-81
2023/06/07 11:46:35;;;;;;;5.57;2.83;;;24.30;41.50;;;;;;5016000;28;20073;-81
2023/06/07 11:49:05;;;;;;;5.93;3.00;;;24.50;41.50;;;;;;4999480;28;20787;-82
2023/06/07 11:51:31;;;;;;;7.93;3.60;;;24.40;41.10;;;;;;4997553;28;20340;-83
2023/06/07 11:54:00;;;;;;;9.50;2.67;;;24.50;41.60;;;;;;5014348;28;20449;-82
2023/06/07 11:56:27;;;;;;;4.25;3.35;;;24.50;39.80;;;;;;5014654;28;20038;-82
2023/06/07 11:58:54;;;;;;;4.05;2.70;;;24.30;40.30;;;;;;5015234;28;20028;-83
2023/06/07 12:01:20;;;;;;;5.23;3.23;;;24.20;40.70;;;;;;5017743;28;20065;-82
2023/06/07 12:03:48;;;;;;;4.25;2.28;;;24.10;41.50;;;;;;5012378;28;20029;-81
2023/06/07 12:06:14;;;;;;;9.02;3.95;;;24.10;41.60;;;;;;5003298;28;20026;-82
2023/06/07 12:08:40;;;;;;;7.22;2.88;;;24.10;42.30;;;;;;4998772;28;20026;-82
2023/06/07 12:11:06;;;;;;;7.35;3.38;;;24.10;42.10;;;;;;5013899;28;20495;-82
2023/06/07 12:13:39;;;;;;;6.05;2.90;;;24.10;41.90;;;;;;5015132;28;20033;-82
2023/06/07 12:16:07;;;;;;;10.68;3.60;;;24.20;41.60;;;;;;5013804;28;20044;-81
2023/06/07 12:18:38;;;;;;;7.13;3.65;;;24.20;42.30;;;;;;5014245;28;20029;-82
2023/06/07 12:21:11;;;;;;;5.88;3.00;;;24.30;41.50;;;;;;5014247;28;20029;-82
2023/06/07 12:23:48;;;;;;;7.70;2.53;;;24.30;40.80;;;;;;5014668;28;20036;-83
2023/06/07 12:26:20;;;;;;;5.53;3.13;;;24.10;40.60;;;;;;5014312;28;20038;-81
2023/06/07 12:28:49;;;;;;;7.57;3.28;;;23.90;40.80;;;;;;5013763;28;20081;-81
2023/06/07 12:31:23;;;;;;;7.03;2.83;;;23.90;41.50;;;;;;5013993;28;20037;-81
2023/06/07 12:34:08;;;;;;;9.20;3.42;;;24.00;40.80;;;;;;5015879;28;20010;-81
2023/06/07 12:36:37;;;;;;;5.82;3.47;;;23.90;41.10;;;;;;5015603;28;20395;-82
2023/06/07 12:39:05;;;;;;;6.90;3.17;;;24.00;41.30;;;;;;4996313;28;20022;-81
2023/06/07 12:41:32;;;;;;;7.13;3.10;;;24.10;41.60;;;;;;4996221;28;20049;-82
2023/06/07 12:43:59;;;;;;;5.68;3.40;;;24.20;41.50;;;;;;5012714;28;20026;-82
2023/06/07 12:46:25;;;;;;;5.50;3.25;;;24.30;41.30;;;;;;5013711;28;20109;-82
2023/06/07 12:48:51;;;;;;;8.93;3.25;;;24.40;41.20;;;;;;5013855;28;20105;-82
2023/06/07 12:51:17;;;;;;;5.38;3.33;;;24.50;40.60;;;;;;5013999;28;20037;-80
2023/06/07 12:53:43;;;;;;;6.47;3.85;;;24.50;40.30;;;;;;5013197;28;20050;-81